Time;durP1;ratioP1;P1;durP2;ratioP2;P2;SDS_P1;SDS_P2;PMS_P1;PMS_P2;Temp;Humidity;BMP_temperature;BMP_pressure;BME280_temperature;BME280_humidity;BME280_pressure;Samples;Min_cycle;Max_cycle;Signal;HPM_P1;HPM_P2
2021/08/17 00:00:40;;;;;;;11.37;3.53;;;;;;;;;;5093381;28;20451;-60
2021/08/17 00:03:07;;;;;;;7.70;3.20;;;;;;;;;;5093531;28;20444;-60
2021/08/17 00:05:37;;;;;;;6.57;2.63;;;;;;;;;;5093319;28;20524;-60
2021/08/17 00:08:04;;;;;;;5.30;2.57;;;;;;;;;;5093413;28;20446;-59
2021/08/17 00:10:32;;;;;;;11.50;4.67;;;;;;;;;;5093138;28;20455;-59
2021/08/17 00:12:59;;;;;;;4.63;2.30;;;;;;;;;;5093021;28;20535;-59
2021/08/17 00:15:26;;;;;;;6.60;3.73;;;;;;;;;;5093400;28;20458;-60
2021/08/17 00:17:54;;;;;;;6.23;3.00;;;;;;;;;;5093397;28;20507;-59
2021/08/17 00:20:21;;;;;;;7.67;2.93;;;;;;;;;;5092985;28;20449;-59
2021/08/17 00:22:50;;;;;;;9.13;3.60;;;;;;;;;;5092931;28;20435;-60
2021/08/17 00:25:17;;;;;;;7.53;4.20;;;;;;;;;;5097290;28;20883;-60
2021/08/17 00:27:45;;;;;;;7.30;3.13;;;;;;;;;;5097650;28;20533;-59
2021/08/17 00:30:12;;;;;;;7.63;3.83;;;;;;;;;;5097066;28;20995;-60
2021/08/17 00:32:40;;;;;;;6.33;3.63;;;;;;;;;;5096945;28;20453;-59
2021/08/17 00:35:09;;;;;;;7.53;3.70;;;;;;;;;;5096764;28;20883;-59
2021/08/17 00:37:36;;;;;;;8.40;4.03;;;;;;;;;;5097383;28;20838;-60
2021/08/17 00:40:05;;;;;;;8.50;3.97;;;;;;;;;;5097609;28;20438;-60
2021/08/17 00:42:34;;;;;;;9.90;4.37;;;;;;;;;;5096803;28;20442;-59
2021/08/17 00:45:03;;;;;;;9.77;3.93;;;;;;;;;;5096665;28;21042;-61
2021/08/17 00:47:30;;;;;;;7.90;4.10;;;;;;;;;;5096702;28;20846;-59
2021/08/17 00:49:58;;;;;;;8.17;4.20;;;;;;;;;;5097107;28;20446;-60
2021/08/17 00:52:25;;;;;;;12.60;3.80;;;;;;;;;;5096727;28;21000;-60
2021/08/17 00:54:53;;;;;;;8.97;4.73;;;;;;;;;;5096635;28;20989;-60
2021/08/17 00:57:22;;;;;;;8.13;3.83;;;;;;;;;;5096964;28;20438;-60
2021/08/17 00:59:49;;;;;;;6.03;3.53;;;;;;;;;;5097142;28;20441;-60
2021/08/17 01:02:16;;;;;;;10.90;3.73;;;;;;;;;;5097263;28;20492;-60
2021/08/17 01:04:43;;;;;;;8.60;3.77;;;;;;;;;;5097107;28;20513;-60
2021/08/17 01:07:11;;;;;;;9.70;4.07;;;;;;;;;;5096774;28;21000;-61
2021/08/17 01:09:39;;;;;;;20.10;4.60;;;;;;;;;;5097225;28;20446;-61
2021/08/17 01:12:08;;;;;;;9.97;3.53;;;;;;;;;;5097213;28;20476;-60
2021/08/17 01:14:37;;;;;;;10.73;4.33;;;;;;;;;;5096670;28;20496;-60
2021/08/17 01:17:04;;;;;;;13.10;3.80;;;;;;;;;;5096538;28;20499;-60
2021/08/17 01:19:32;;;;;;;11.70;4.43;;;;;;;;;;5096436;28;20434;-60
2021/08/17 01:21:59;;;;;;;8.60;4.03;;;;;;;;;;5096414;28;20438;-60
2021/08/17 01:24:27;;;;;;;8.30;4.13;;;;;;;;;;5095924;28;20537;-60
2021/08/17 01:26:55;;;;;;;14.63;4.63;;;;;;;;;;5096417;28;20442;-59
2021/08/17 01:29:24;;;;;;;17.80;4.97;;;;;;;;;;5096914;28;20502;-59
2021/08/17 01:31:51;;;;;;;9.83;4.93;;;;;;;;;;5096398;28;20541;-60
2021/08/17 01:34:18;;;;;;;10.43;4.60;;;;;;;;;;5096191;28;20557;-61
2021/08/17 01:36:46;;;;;;;9.37;4.30;;;;;;;;;;5098815;28;20534;-60
2021/08/17 01:39:13;;;;;;;9.00;4.03;;;;;;;;;;5097976;28;20442;-60
2021/08/17 01:41:40;;;;;;;7.87;4.40;;;;;;;;;;5098748;28;20496;-60
2021/08/17 01:44:09;;;;;;;17.70;4.90;;;;;;;;;;5100076;28;20430;-60
2021/08/17 01:46:37;;;;;;;9.47;3.80;;;;;;;;;;5102409;28;20493;-61
2021/08/17 01:49:04;;;;;;;8.97;4.30;;;;;;;;;;5095988;28;20450;-60
2021/08/17 01:51:31;;;;;;;19.23;5.00;;;;;;;;;;5095857;28;20503;-60
2021/08/17 01:53:58;;;;;;;9.53;4.20;;;;;;;;;;5095763;28;20930;-59
2021/08/17 01:56:26;;;;;;;12.57;4.80;;;;;;;;;;5095463;28;20981;-60
2021/08/17 01:58:53;;;;;;;12.33;4.50;;;;;;;;;;5095888;28;20450;-59
2021/08/17 02:01:21;;;;;;;11.50;4.63;;;;;;;;;;5095798;28;20435;-60
2021/08/17 02:03:49;;;;;;;10.53;5.10;;;;;;;;;;5095919;28;20434;-60
2021/08/17 02:06:16;;;;;;;18.00;5.50;;;;;;;;;;5095953;28;20516;-60
2021/08/17 02:08:44;;;;;;;12.00;5.33;;;;;;;;;;5095963;28;20451;-60
2021/08/17 02:11:11;;;;;;;13.50;5.13;;;;;;;;;;5095377;28;20941;-60
2021/08/17 02:13:38;;;;;;;13.17;5.00;;;;;;;;;;5095571;28;20473;-60
2021/08/17 02:16:05;;;;;;;18.40;5.33;;;;;;;;;;5095741;28;20892;-60
2021/08/17 02:18:35;;;;;;;10.60;4.93;;;;;;;;;;5095186;28;20442;-60
2021/08/17 02:21:03;;;;;;;13.60;4.93;;;;;;;;;;5095369;28;20521;-60
2021/08/17 02:23:31;;;;;;;7.93;4.17;;;;;;;;;;5095354;28;20450;-60
2021/08/17 02:25:58;;;;;;;21.93;5.93;;;;;;;;;;5095149;28;20462;-60
2021/08/17 02:28:25;;;;;;;16.07;5.23;;;;;;;;;;5094826;28;20438;-59
2021/08/17 02:30:53;;;;;;;11.07;4.80;;;;;;;;;;5094753;28;20442;-60
2021/08/17 02:33:20;;;;;;;16.03;5.53;;;;;;;;;;5094632;28;20454;-60
2021/08/17 02:35:49;;;;;;;14.43;4.50;;;;;;;;;;5094605;28;20547;-60
2021/08/17 02:38:16;;;;;;;12.87;4.13;;;;;;;;;;5094651;28;20446;-60
2021/08/17 02:40:44;;;;;;;7.87;3.80;;;;;;;;;;5094635;28;20438;-60
2021/08/17 02:43:11;;;;;;;14.80;5.53;;;;;;;;;;5094820;28;20495;-59
2021/08/17 02:45:38;;;;;;;13.23;5.13;;;;;;;;;;5094923;28;20876;-59
2021/08/17 02:48:06;;;;;;;13.77;4.30;;;;;;;;;;5093645;28;20438;-59
2021/08/17 02:50:33;;;;;;;8.70;4.63;;;;;;;;;;5094689;28;20511;-60
2021/08/17 02:53:02;;;;;;;11.17;5.67;;;;;;;;;;5094638;28;20443;-59
2021/08/17 02:55:29;;;;;;;14.83;5.07;;;;;;;;;;5094478;28;20547;-60
2021/08/17 02:57:59;;;;;;;11.30;4.90;;;;;;;;;;5094598;28;20442;-60
2021/08/17 03:00:26;;;;;;;14.33;4.73;;;;;;;;;;5094481;28;20442;-60
2021/08/17 03:02:53;;;;;;;14.77;5.20;;;;;;;;;;5094178;28;21012;-60
2021/08/17 03:05:21;;;;;;;10.83;5.13;;;;;;;;;;5094373;28;20458;-60
2021/08/17 03:07:48;;;;;;;12.63;4.20;;;;;;;;;;5094113;28;20450;-59
2021/08/17 03:10:17;;;;;;;11.67;4.40;;;;;;;;;;5094341;28;20454;-59
2021/08/17 03:12:44;;;;;;;14.87;4.03;;;;;;;;;;5093923;28;20930;-60
2021/08/17 03:15:12;;;;;;;12.03;4.33;;;;;;;;;;5094066;28;20535;-58
2021/08/17 03:17:39;;;;;;;14.07;4.90;;;;;;;;;;5094036;28;20496;-58
2021/08/17 03:20:07;;;;;;;12.13;4.20;;;;;;;;;;5094198;28;20511;-60
2021/08/17 03:22:34;;;;;;;10.80;4.30;;;;;;;;;;5093804;28;20511;-60
2021/08/17 03:25:02;;;;;;;14.03;4.13;;;;;;;;;;5093634;28;20508;-59
2021/08/17 03:27:30;;;;;;;10.60;3.67;;;;;;;;;;5094007;28;20438;-59
2021/08/17 03:29:58;;;;;;;6.07;3.67;;;;;;;;;;5093623;28;20446;-60
2021/08/17 03:32:25;;;;;;;14.63;4.40;;;;;;;;;;5093961;28;20466;-60
2021/08/17 03:34:52;;;;;;;13.37;4.97;;;;;;;;;;5093343;28;21028;-60
2021/08/17 03:37:19;;;;;;;13.10;4.00;;;;;;;;;;5093583;28;20423;-59
2021/08/17 03:39:47;;;;;;;8.70;3.50;;;;;;;;;;5093695;28;20502;-59
2021/08/17 03:42:14;;;;;;;9.50;3.97;;;;;;;;;;5093788;28;20537;-59
2021/08/17 03:44:43;;;;;;;11.50;4.70;;;;;;;;;;5093618;28;20818;-59
2021/08/17 03:47:10;;;;;;;9.47;4.30;;;;;;;;;;5093646;28;20446;-59
2021/08/17 03:49:37;;;;;;;7.10;4.00;;;;;;;;;;5093752;28;20450;-60
2021/08/17 03:52:05;;;;;;;9.67;3.50;;;;;;;;;;5093745;28;20507;-59
2021/08/17 03:54:32;;;;;;;16.00;4.70;;;;;;;;;;5093584;28;20528;-60
2021/08/17 03:56:59;;;;;;;9.13;3.70;;;;;;;;;;5094163;28;20457;-60
2021/08/17 03:59:27;;;;;;;11.03;3.70;;;;;;;;;;5093409;28;20497;-60
2021/08/17 04:01:55;;;;;;;12.33;4.60;;;;;;;;;;5093661;28;20792;-60
2021/08/17 04:04:22;;;;;;;15.83;4.40;;;;;;;;;;5093632;28;20438;-60
2021/08/17 04:08:29;;;;;;;10.80;4.27;;;;;;;;;;5112175;27;20594;-59
2021/08/17 04:10:57;;;;;;;12.67;4.57;;;;;;;;;;5113284;28;20854;-60
2021/08/17 04:13:24;;;;;;;12.80;4.17;;;;;;;;;;5114232;28;20925;-59
2021/08/17 04:15:51;;;;;;;8.53;2.63;;;;;;;;;;5114793;28;20476;-60
2021/08/17 04:18:18;;;;;;;15.00;4.63;;;;;;;;;;5114838;28;20499;-61
2021/08/17 04:20:46;;;;;;;12.27;3.83;;;;;;;;;;5115181;28;20442;-59
2021/08/17 04:23:13;;;;;;;7.40;3.63;;;;;;;;;;5113628;28;20467;-61
2021/08/17 04:25:41;;;;;;;11.80;4.00;;;;;;;;;;5113181;28;20973;-60
2021/08/17 04:28:09;;;;;;;7.33;4.10;;;;;;;;;;5113332;28;20916;-60
2021/08/17 04:30:36;;;;;;;10.20;4.90;;;;;;;;;;5112011;28;20483;-60
2021/08/17 04:33:03;;;;;;;12.00;4.30;;;;;;;;;;5110999;28;20886;-60
2021/08/17 04:35:31;;;;;;;8.20;3.97;;;;;;;;;;5110881;28;20484;-60
2021/08/17 04:37:58;;;;;;;14.37;4.60;;;;;;;;;;5112840;28;20437;-60
2021/08/17 04:40:25;;;;;;;11.10;3.73;;;;;;;;;;5115944;28;20441;-60
2021/08/17 04:42:54;;;;;;;8.17;3.20;;;;;;;;;;5110855;28;20990;-60
2021/08/17 04:45:21;;;;;;;12.70;3.87;;;;;;;;;;5110953;28;20871;-60
2021/08/17 04:47:49;;;;;;;13.50;3.73;;;;;;;;;;5110627;28;20474;-59
2021/08/17 04:50:16;;;;;;;5.20;3.40;;;;;;;;;;5110882;28;20459;-60
2021/08/17 04:52:44;;;;;;;8.67;4.10;;;;;;;;;;5110447;28;20934;-59
2021/08/17 04:55:12;;;;;;;10.57;4.17;;;;;;;;;;5110536;28;20887;-59
2021/08/17 04:57:53;;;;;;;7.73;4.37;;;;;;;;;;5114023;28;20441;-60
2021/08/17 05:00:23;;;;;;;10.17;3.60;;;;;;;;;;5112883;28;20445;-59
2021/08/17 05:02:50;;;;;;;8.50;3.17;;;;;;;;;;5111782;28;20453;-59
2021/08/17 05:05:18;;;;;;;7.83;4.23;;;;;;;;;;5110606;28;20514;-60
2021/08/17 05:07:45;;;;;;;9.10;3.50;;;;;;;;;;5112020;28;20532;-57
2021/08/17 05:10:15;;;;;;;12.70;3.93;;;;;;;;;;5113866;28;20453;-59
2021/08/17 05:12:42;;;;;;;10.90;3.97;;;;;;;;;;5111790;28;20445;-60
2021/08/17 05:15:10;;;;;;;9.93;3.17;;;;;;;;;;5112572;28;20527;-61
2021/08/17 05:17:38;;;;;;;10.80;3.43;;;;;;;;;;5110990;28;20482;-60
2021/08/17 05:20:07;;;;;;;12.57;3.60;;;;;;;;;;5096805;28;20438;-60
2021/08/17 05:22:34;;;;;;;5.53;3.13;;;;;;;;;;5097539;28;20500;-60
2021/08/17 05:25:01;;;;;;;7.90;3.53;;;;;;;;;;5097253;28;20509;-59
2021/08/17 05:27:28;;;;;;;9.37;2.97;;;;;;;;;;5097476;28;20531;-60
2021/08/17 05:29:56;;;;;;;6.93;3.30;;;;;;;;;;5097453;28;20442;-60
2021/08/17 05:32:24;;;;;;;7.73;2.57;;;;;;;;;;5096613;28;20442;-59
2021/08/17 05:37:20;;;;;;;8.07;3.20;;;;;;;;;;5053670;22;20580;-54
2021/08/17 05:39:47;;;;;;;9.07;3.20;;;;;;;;;;5035505;28;20437;-54
2021/08/17 05:42:14;;;;;;;5.70;3.00;;;;;;;;;;5036046;28;20471;-54
2021/08/17 05:44:42;;;;;;;8.70;3.43;;;;;;;;;;5035646;28;20515;-55
2021/08/17 05:47:09;;;;;;;7.57;3.70;;;;;;;;;;5035564;28;20477;-54
2021/08/17 05:49:37;;;;;;;10.80;3.20;;;;;;;;;;5035321;28;20449;-54
2021/08/17 05:52:05;;;;;;;16.07;3.30;;;;;;;;;;5035094;28;20544;-54
2021/08/17 05:54:33;;;;;;;11.17;3.33;;;;;;;;;;5035725;28;20915;-54
2021/08/17 05:57:01;;;;;;;8.57;3.70;;;;;;;;;;5035126;28;20465;-54
2021/08/17 05:59:28;;;;;;;11.77;2.90;;;;;;;;;;5035007;28;20453;-54
2021/08/17 06:01:56;;;;;;;6.03;2.70;;;;;;;;;;5035122;28;20445;-54
2021/08/17 06:04:23;;;;;;;10.77;3.10;;;;;;;;;;5034866;28;20441;-53
2021/08/17 06:06:50;;;;;;;9.10;3.33;;;;;;;;;;5034797;28;20469;-53
2021/08/17 06:09:19;;;;;;;7.70;2.50;;;;;;;;;;5035162;28;20441;-54
2021/08/17 06:11:48;;;;;;;6.73;2.13;;;;;;;;;;5035085;28;20449;-54
2021/08/17 06:14:15;;;;;;;8.10;3.60;;;;;;;;;;5034962;28;20444;-54
2021/08/17 06:16:42;;;;;;;8.30;3.20;;;;;;;;;;5035060;28;20495;-53
2021/08/17 06:19:10;;;;;;;7.43;2.40;;;;;;;;;;5034745;28;20507;-54
2021/08/17 06:21:38;;;;;;;6.03;2.37;;;;;;;;;;5035239;28;20445;-54
2021/08/17 06:24:06;;;;;;;6.43;2.77;;;;;;;;;;5034678;28;20445;-54
2021/08/17 06:26:33;;;;;;;7.77;2.93;;;;;;;;;;5035228;28;20806;-53
2021/08/17 06:29:02;;;;;;;6.13;2.30;;;;;;;;;;5035159;28;20484;-52
2021/08/17 06:31:29;;;;;;;7.10;2.70;;;;;;;;;;5033772;28;20468;-53
2021/08/17 06:34:00;;;;;;;11.23;2.67;;;;;;;;;;5034749;28;20445;-53
2021/08/17 06:36:27;;;;;;;11.70;2.53;;;;;;;;;;5034010;28;20969;-53
2021/08/17 06:38:54;;;;;;;11.23;2.37;;;;;;;;;;5034088;28;20449;-53
2021/08/17 06:41:21;;;;;;;11.00;2.63;;;;;;;;;;5034284;28;20503;-54
2021/08/17 06:43:49;;;;;;;9.33;3.07;;;;;;;;;;5034670;28;20507;-55
2021/08/17 06:46:17;;;;;;;12.13;2.50;;;;;;;;;;5034381;28;20476;-56
2021/08/17 06:48:45;;;;;;;7.57;2.80;;;;;;;;;;5034497;28;20875;-54
2021/08/17 06:51:12;;;;;;;8.10;2.30;;;;;;;;;;5034001;28;20449;-54
2021/08/17 06:53:40;;;;;;;9.30;2.47;;;;;;;;;;5034093;28;20457;-54
2021/08/17 06:56:07;;;;;;;9.90;3.73;;;;;;;;;;5034266;28;20526;-54
2021/08/17 06:58:35;;;;;;;9.43;2.57;;;;;;;;;;5034411;28;20452;-54
2021/08/17 07:01:03;;;;;;;7.73;2.53;;;;;;;;;;5033845;28;20441;-54
2021/08/17 07:03:31;;;;;;;9.23;2.40;;;;;;;;;;5033869;28;20503;-54
2021/08/17 07:05:59;;;;;;;7.10;2.90;;;;;;;;;;5033782;28;20880;-54
2021/08/17 07:08:26;;;;;;;10.33;2.57;;;;;;;;;;5033947;28;20476;-55
2021/08/17 07:10:53;;;;;;;3.73;2.30;;;;;;;;;;5034127;28;20519;-54
2021/08/17 07:13:21;;;;;;;9.40;2.83;;;;;;;;;;5033879;28;20495;-54
2021/08/17 07:15:48;;;;;;;12.20;2.90;;;;;;;;;;5033613;28;20818;-54
2021/08/17 07:18:15;;;;;;;4.10;2.07;;;;;;;;;;5034166;28;20449;-54
2021/08/17 07:20:44;;;;;;;9.40;2.17;;;;;;;;;;5035849;28;20457;-54
2021/08/17 07:23:11;;;;;;;5.53;1.90;;;;;;;;;;5033760;28;20523;-53
2021/08/17 07:25:39;;;;;;;7.20;1.50;;;;;;;;;;5033297;28;20518;-54
2021/08/17 07:28:06;;;;;;;9.33;2.23;;;;;;;;;;5033470;28;20481;-54
2021/08/17 07:30:34;;;;;;;6.17;2.03;;;;;;;;;;5033578;28;20449;-55
2021/08/17 07:33:01;;;;;;;7.20;2.27;;;;;;;;;;5033647;28;20445;-54
2021/08/17 07:35:28;;;;;;;7.23;2.00;;;;;;;;;;5033287;28;20546;-53
2021/08/17 07:37:57;;;;;;;10.83;2.73;;;;;;;;;;5033543;28;20426;-54
2021/08/17 07:40:25;;;;;;;8.80;2.43;;;;;;;;;;5033458;28;20507;-53
2021/08/17 07:42:52;;;;;;;11.00;2.90;;;;;;;;;;5033241;28;20472;-55
2021/08/17 07:45:22;;;;;;;6.57;2.20;;;;;;;;;;5033549;28;20465;-54
2021/08/17 07:47:49;;;;;;;10.60;2.60;;;;;;;;;;5033224;28;20472;-55
2021/08/17 07:50:16;;;;;;;12.20;2.57;;;;;;;;;;5033250;28;20609;-55
2021/08/17 07:52:44;;;;;;;9.10;2.43;;;;;;;;;;5033313;28;20452;-54
2021/08/17 07:55:14;;;;;;;9.00;3.20;;;;;;;;;;5033052;28;20499;-54
2021/08/17 07:57:41;;;;;;;6.23;2.40;;;;;;;;;;5032523;28;20438;-54
2021/08/17 08:00:10;;;;;;;12.10;2.70;;;;;;;;;;5032792;28;20441;-54
2021/08/17 08:02:38;;;;;;;6.80;2.40;;;;;;;;;;5033229;28;20503;-54
2021/08/17 08:05:05;;;;;;;7.20;3.50;;;;;;;;;;5032952;28;20445;-54
2021/08/17 08:07:32;;;;;;;7.33;2.13;;;;;;;;;;5033021;28;20823;-54
2021/08/17 08:10:00;;;;;;;7.07;1.80;;;;;;;;;;5032719;28;20514;-54
2021/08/17 08:12:28;;;;;;;13.10;2.97;;;;;;;;;;5033042;28;20449;-54
2021/08/17 08:14:55;;;;;;;10.23;2.90;;;;;;;;;;5032503;28;20858;-55
2021/08/17 08:17:23;;;;;;;9.13;2.80;;;;;;;;;;5032784;28;20491;-54
2021/08/17 08:19:50;;;;;;;8.60;2.67;;;;;;;;;;5032967;28;20441;-55
2021/08/17 08:22:17;;;;;;;12.53;2.50;;;;;;;;;;5032668;28;20511;-55
2021/08/17 08:24:45;;;;;;;7.13;2.63;;;;;;;;;;5032433;28;20449;-55
2021/08/17 08:27:14;;;;;;;5.73;2.07;;;;;;;;;;5032927;28;20473;-55
2021/08/17 08:29:43;;;;;;;11.63;3.07;;;;;;;;;;5032511;28;20614;-55
2021/08/17 08:32:11;;;;;;;10.30;3.47;;;;;;;;;;5032549;28;20455;-55
2021/08/17 08:34:38;;;;;;;23.17;3.63;;;;;;;;;;5032760;28;20544;-54
2021/08/17 08:37:06;;;;;;;11.97;3.30;;;;;;;;;;5032200;28;20855;-55
2021/08/17 08:39:33;;;;;;;7.83;2.70;;;;;;;;;;5032515;28;20495;-55
2021/08/17 08:42:01;;;;;;;8.00;2.90;;;;;;;;;;5032407;28;20452;-55
2021/08/17 08:44:28;;;;;;;5.63;2.73;;;;;;;;;;5032717;28;20453;-55
2021/08/17 08:46:56;;;;;;;8.80;2.87;;;;;;;;;;5032366;28;20841;-54
2021/08/17 08:49:24;;;;;;;5.80;2.70;;;;;;;;;;5032580;28;20481;-55
2021/08/17 08:51:51;;;;;;;6.97;3.27;;;;;;;;;;5032720;28;20441;-56
2021/08/17 08:54:18;;;;;;;7.30;2.80;;;;;;;;;;5034568;28;20494;-56
2021/08/17 08:56:46;;;;;;;6.20;2.80;;;;;;;;;;5036352;28;20530;-56
2021/08/17 08:59:13;;;;;;;6.93;2.50;;;;;;;;;;5036238;28;20965;-55
2021/08/17 09:01:41;;;;;;;8.30;3.13;;;;;;;;;;5035626;28;20943;-55
2021/08/17 09:04:09;;;;;;;6.77;2.73;;;;;;;;;;5036038;28;20452;-56
2021/08/17 09:06:36;;;;;;;10.07;3.53;;;;;;;;;;5036216;28;20472;-55
2021/08/17 09:09:09;;;;;;;8.30;3.20;;;;;;;;;;5035906;28;20535;-56
2021/08/17 09:11:36;;;;;;;10.47;3.40;;;;;;;;;;5035967;28;20448;-55
2021/08/17 09:14:23;;;;;;;7.57;3.23;;;;;;;;;;5036171;28;20539;-55
2021/08/17 09:16:53;;;;;;;11.73;3.80;;;;;;;;;;5035638;28;20887;-54
2021/08/17 09:19:25;;;;;;;10.87;4.07;;;;;;;;;;5037533;28;20937;-55
2021/08/17 09:21:53;;;;;;;8.93;3.53;;;;;;;;;;5038347;28;20502;-55
2021/08/17 09:24:21;;;;;;;8.10;4.07;;;;;;;;;;5036501;28;20479;-55
2021/08/17 09:26:49;;;;;;;5.80;3.20;;;;;;;;;;5035307;28;21053;-55
2021/08/17 09:29:24;;;;;;;5.27;3.30;;;;;;;;;;5035658;28;20488;-55
2021/08/17 09:31:52;;;;;;;10.97;3.43;;;;;;;;;;5035437;28;20506;-55
2021/08/17 09:34:20;;;;;;;12.10;3.90;;;;;;;;;;5036526;28;20543;-55
2021/08/17 09:36:48;;;;;;;11.17;4.57;;;;;;;;;;5035167;28;20481;-55
2021/08/17 09:39:28;;;;;;;10.63;3.90;;;;;;;;;;5035193;28;20515;-55
2021/08/17 09:42:06;;;;;;;13.10;4.20;;;;;;;;;;5035037;28;20430;-55
2021/08/17 09:44:33;;;;;;;8.77;4.10;;;;;;;;;;5035451;28;20514;-55
2021/08/17 09:47:00;;;;;;;5.10;3.13;;;;;;;;;;5035350;28;20967;-55
2021/08/17 09:49:30;;;;;;;8.87;4.27;;;;;;;;;;5034895;28;20886;-54
2021/08/17 09:52:00;;;;;;;10.73;4.40;;;;;;;;;;5035334;28;20515;-55
2021/08/17 09:54:28;;;;;;;6.30;3.67;;;;;;;;;;5035589;28;20445;-54
2021/08/17 09:56:56;;;;;;;8.00;3.50;;;;;;;;;;5034949;28;20885;-53
2021/08/17 09:59:25;;;;;;;7.37;3.90;;;;;;;;;;5035009;28;20528;-54
2021/08/17 10:01:52;;;;;;;8.53;4.10;;;;;;;;;;5035116;28;20847;-54
2021/08/17 10:04:22;;;;;;;12.50;3.77;;;;;;;;;;5034907;28;20453;-55
2021/08/17 10:06:50;;;;;;;9.17;4.20;;;;;;;;;;5034748;28;20545;-55
2021/08/17 10:09:19;;;;;;;11.50;4.60;;;;;;;;;;5034861;28;20473;-54
2021/08/17 10:11:47;;;;;;;7.73;3.50;;;;;;;;;;5034656;28;20445;-55
2021/08/17 10:14:15;;;;;;;9.73;4.60;;;;;;;;;;5034652;28;20445;-54
2021/08/17 10:16:43;;;;;;;6.10;3.10;;;;;;;;;;5034799;28;20469;-56
2021/08/17 10:19:10;;;;;;;9.07;4.00;;;;;;;;;;5034394;28;20929;-56
2021/08/17 10:21:39;;;;;;;9.20;4.47;;;;;;;;;;5034301;28;20937;-56
2021/08/17 10:24:21;;;;;;;10.57;4.13;;;;;;;;;;5034445;28;20875;-56
2021/08/17 10:26:50;;;;;;;8.23;4.13;;;;;;;;;;5034120;28;20523;-56
2021/08/17 10:29:26;;;;;;;7.90;4.00;;;;;;;;;;5034520;28;20892;-55
2021/08/17 10:31:53;;;;;;;12.43;5.63;;;;;;;;;;5034516;28;20528;-55
2021/08/17 10:34:36;;;;;;;9.47;3.90;;;;;;;;;;5034374;28;20495;-54
2021/08/17 10:37:18;;;;;;;6.27;4.40;;;;;;;;;;5034130;28;20480;-54
2021/08/17 10:39:46;;;;;;;6.17;3.47;;;;;;;;;;5034286;28;20433;-54
2021/08/17 10:42:24;;;;;;;4.90;4.00;;;;;;;;;;5034269;28;20441;-55
2021/08/17 10:44:52;;;;;;;10.93;4.33;;;;;;;;;;5034291;28;20531;-55
2021/08/17 10:47:31;;;;;;;10.53;4.30;;;;;;;;;;5035742;28;20507;-54
2021/08/17 10:49:58;;;;;;;6.00;3.87;;;;;;;;;;5034055;28;20563;-54
2021/08/17 10:52:30;;;;;;;8.07;5.33;;;;;;;;;;5034176;28;20453;-55
2021/08/17 10:55:15;;;;;;;8.87;5.37;;;;;;;;;;5034006;28;20456;-55
2021/08/17 10:57:51;;;;;;;10.40;5.83;;;;;;;;;;5033678;28;20991;-54
2021/08/17 11:00:33;;;;;;;8.57;5.50;;;;;;;;;;5034192;28;20545;-55
2021/08/17 11:03:04;;;;;;;5.60;4.53;;;;;;;;;;5033604;28;20441;-55
2021/08/17 11:05:49;;;;;;;8.10;5.47;;;;;;;;;;5033944;28;20461;-55
2021/08/17 11:08:35;;;;;;;9.13;5.13;;;;;;;;;;5033957;28;20436;-56
2021/08/17 11:11:04;;;;;;;9.37;5.73;;;;;;;;;;5033757;28;20499;-56
2021/08/17 11:13:33;;;;;;;8.90;6.03;;;;;;;;;;5033584;28;20445;-56
2021/08/17 11:16:07;;;;;;;7.93;5.43;;;;;;;;;;5033101;28;20895;-55
2021/08/17 11:18:49;;;;;;;9.23;6.13;;;;;;;;;;5034067;28;20520;-55
2021/08/17 11:21:29;;;;;;;19.87;5.93;;;;;;;;;;5035582;28;20528;-55
2021/08/17 11:24:11;;;;;;;10.73;5.57;;;;;;;;;;5034414;28;20433;-54
2021/08/17 11:26:39;;;;;;;10.57;6.80;;;;;;;;;;5030814;28;20580;-56
2021/08/17 11:29:08;;;;;;;9.00;6.17;;;;;;;;;;5033032;28;20488;-55
2021/08/17 11:31:44;;;;;;;10.47;6.20;;;;;;;;;;5033594;28;20488;-55
2021/08/17 11:34:16;;;;;;;11.30;5.50;;;;;;;;;;5034810;28;20917;-55
2021/08/17 11:39:19;;;;;;;12.97;7.30;;;;;;;;;;5059887;22;20493;-60
2021/08/17 11:41:46;;;;;;;10.10;6.40;;;;;;;;;;5033548;28;20440;-60
2021/08/17 11:44:16;;;;;;;9.07;7.07;;;;;;;;;;5033592;28;20449;-59
2021/08/17 11:46:43;;;;;;;9.60;6.37;;;;;;;;;;5033162;28;20441;-60
2021/08/17 11:49:20;;;;;;;9.90;6.90;;;;;;;;;;5033268;28;20535;-60
2021/08/17 11:51:47;;;;;;;10.20;6.60;;;;;;;;;;5033552;28;20878;-59
2021/08/17 11:54:15;;;;;;;9.40;6.90;;;;;;;;;;5033167;28;20995;-59
2021/08/17 11:56:42;;;;;;;10.00;7.20;;;;;;;;;;5033128;28;20810;-59
2021/08/17 11:59:09;;;;;;;9.00;7.13;;;;;;;;;;5033024;28;20465;-60
2021/08/17 12:01:38;;;;;;;9.07;6.80;;;;;;;;;;5033186;28;20449;-59
2021/08/17 12:04:08;;;;;;;10.90;7.03;;;;;;;;;;5032920;28;20945;-60
2021/08/17 12:06:36;;;;;;;10.63;7.40;;;;;;;;;;5033000;28;20835;-59
2021/08/17 12:09:27;;;;;;;12.53;8.07;;;;;;;;;;5032905;28;20550;-59
2021/08/17 12:11:57;;;;;;;9.30;7.80;;;;;;;;;;5013025;28;21035;-58
2021/08/17 12:14:25;;;;;;;11.80;7.30;;;;;;;;;;5033274;28;20437;-57
2021/08/17 12:16:57;;;;;;;7.90;6.90;;;;;;;;;;5032812;28;20440;-61
2021/08/17 12:19:24;;;;;;;13.73;7.80;;;;;;;;;;5032625;28;20925;-59
2021/08/17 12:21:52;;;;;;;12.30;7.20;;;;;;;;;;5032914;28;20449;-61
2021/08/17 12:24:22;;;;;;;19.07;8.30;;;;;;;;;;5032844;28;20491;-60
2021/08/17 12:26:57;;;;;;;11.47;8.90;;;;;;;;;;5032608;28;20784;-60
2021/08/17 12:29:24;;;;;;;12.20;8.93;;;;;;;;;;5034941;28;20544;-60
2021/08/17 12:31:52;;;;;;;18.97;8.87;;;;;;;;;;5036759;28;20448;-59
2021/08/17 12:34:21;;;;;;;22.23;8.53;;;;;;;;;;5036901;28;20444;-57
2021/08/17 12:36:49;;;;;;;10.63;8.30;;;;;;;;;;5036685;28;20475;-59
2021/08/17 12:39:21;;;;;;;12.57;8.10;;;;;;;;;;5036251;28;20454;-59
2021/08/17 12:41:48;;;;;;;22.00;9.03;;;;;;;;;;5036436;28;20491;-59
2021/08/17 12:44:17;;;;;;;12.60;8.50;;;;;;;;;;5036365;28;20998;-59
2021/08/17 12:47:10;;;;;;;15.03;8.97;;;;;;;;;;5036195;28;20436;-60
2021/08/17 12:49:40;;;;;;;13.50;8.53;;;;;;;;;;5035867;28;20471;-57
2021/08/17 12:52:23;;;;;;;14.83;9.10;;;;;;;;;;5035917;28;20453;-59
2021/08/17 12:54:51;;;;;;;14.13;8.63;;;;;;;;;;5035873;28;20511;-59
2021/08/17 12:57:18;;;;;;;17.47;9.07;;;;;;;;;;5035972;28;20531;-60
2021/08/17 12:59:45;;;;;;;27.33;10.33;;;;;;;;;;5035904;28;20446;-59
2021/08/17 13:02:12;;;;;;;13.90;9.67;;;;;;;;;;5036089;28;20448;-59
2021/08/17 13:04:41;;;;;;;16.67;10.83;;;;;;;;;;5036912;28;20445;-60
2021/08/17 13:07:08;;;;;;;14.80;9.70;;;;;;;;;;5037144;28;20531;-58
2021/08/17 13:09:36;;;;;;;22.60;10.90;;;;;;;;;;5036177;28;20473;-58
2021/08/17 13:12:03;;;;;;;14.57;10.00;;;;;;;;;;5036369;28;20449;-60
2021/08/17 13:14:30;;;;;;;13.40;10.40;;;;;;;;;;5035995;28;20507;-59
2021/08/17 13:16:58;;;;;;;15.43;10.70;;;;;;;;;;5035766;28;20494;-59
2021/08/17 13:19:25;;;;;;;13.33;9.23;;;;;;;;;;5035865;28;20490;-60
2021/08/17 13:21:54;;;;;;;15.93;9.90;;;;;;;;;;5035709;28;20878;-58
2021/08/17 13:24:21;;;;;;;19.43;11.40;;;;;;;;;;5035247;28;20945;-59
2021/08/17 13:26:49;;;;;;;15.17;11.10;;;;;;;;;;5035257;28;20449;-60
2021/08/17 13:29:16;;;;;;;17.80;11.70;;;;;;;;;;5035209;28;20481;-58
2021/08/17 13:31:43;;;;;;;15.07;11.13;;;;;;;;;;5035377;28;20849;-59
2021/08/17 13:34:11;;;;;;;16.60;11.70;;;;;;;;;;5035739;28;20856;-60
2021/08/17 13:36:38;;;;;;;15.77;11.73;;;;;;;;;;5035201;28;20510;-59
2021/08/17 13:39:07;;;;;;;17.13;12.53;;;;;;;;;;5034910;28;20481;-58
2021/08/17 13:41:34;;;;;;;21.00;12.50;;;;;;;;;;5035572;28;20933;-58
2021/08/17 13:44:01;;;;;;;19.63;12.20;;;;;;;;;;5035574;28;20502;-59
2021/08/17 13:46:28;;;;;;;16.60;11.60;;;;;;;;;;5035514;28;20445;-57
2021/08/17 13:48:56;;;;;;;14.63;11.37;;;;;;;;;;5034996;28;20465;-58
2021/08/17 13:51:23;;;;;;;19.00;10.93;;;;;;;;;;5035163;28;20493;-57
2021/08/17 13:53:51;;;;;;;18.00;11.40;;;;;;;;;;5034898;28;20452;-57
2021/08/17 13:56:21;;;;;;;19.00;12.00;;;;;;;;;;5035116;28;20440;-59
2021/08/17 13:58:48;;;;;;;16.27;11.67;;;;;;;;;;5035535;28;20572;-59
2021/08/17 14:01:16;;;;;;;16.27;12.60;;;;;;;;;;5034845;28;20471;-59
2021/08/17 14:03:44;;;;;;;20.33;12.17;;;;;;;;;;5034777;28;20456;-59
2021/08/17 14:06:12;;;;;;;15.80;12.43;;;;;;;;;;5034400;28;20942;-59
2021/08/17 14:08:40;;;;;;;18.23;11.77;;;;;;;;;;5034250;28;20972;-59
2021/08/17 14:11:07;;;;;;;16.83;11.43;;;;;;;;;;5034903;28;20477;-59
2021/08/17 14:13:36;;;;;;;16.23;12.30;;;;;;;;;;5034510;28;20505;-59
2021/08/17 14:16:03;;;;;;;19.23;11.80;;;;;;;;;;5035323;28;20979;-59
2021/08/17 14:18:31;;;;;;;17.70;12.87;;;;;;;;;;5034416;28;20469;-59
2021/08/17 14:21:01;;;;;;;20.13;12.77;;;;;;;;;;5035031;28;20441;-59
2021/08/17 14:23:30;;;;;;;16.97;12.20;;;;;;;;;;5035901;28;20473;-60
2021/08/17 14:25:57;;;;;;;18.50;12.50;;;;;;;;;;5034602;28;20437;-59
2021/08/17 14:28:24;;;;;;;17.83;12.17;;;;;;;;;;5035190;28;20583;-60
2021/08/17 14:30:53;;;;;;;18.03;12.90;;;;;;;;;;5034731;28;20550;-59
2021/08/17 14:33:20;;;;;;;13.23;10.70;;;;;;;;;;5034127;28;20532;-59
2021/08/17 14:35:48;;;;;;;14.63;10.20;;;;;;;;;;5035439;28;20441;-59
2021/08/17 14:38:15;;;;;;;11.13;9.33;;;;;;;;;;5035893;28;20596;-58
2021/08/17 14:40:43;;;;;;;14.80;10.90;;;;;;;;;;5035961;28;20511;-58
2021/08/17 14:43:10;;;;;;;13.40;9.37;;;;;;;;;;5034548;28;20499;-59
2021/08/17 14:45:39;;;;;;;11.97;9.47;;;;;;;;;;5034642;28;20440;-57
2021/08/17 14:48:08;;;;;;;13.23;9.70;;;;;;;;;;5034002;28;20515;-59
2021/08/17 14:50:35;;;;;;;14.00;9.57;;;;;;;;;;5033577;28;20552;-59